createdAt,value
2017-06-30T00:00:28.853Z,80.80
2017-06-30T00:02:56.335Z,80.80
2017-06-30T00:05:23.853Z,81.00
2017-06-30T00:07:51.356Z,80.50
2017-06-30T00:10:18.943Z,80.50
2017-06-30T00:12:47.222Z,80.40
2017-06-30T00:15:15.480Z,80.30
2017-06-30T00:17:43.739Z,80.10
2017-06-30T00:20:11.435Z,80.40
2017-06-30T00:22:39.681Z,80.40
2017-06-30T00:25:07.238Z,80.30
2017-06-30T00:27:34.759Z,80.20
2017-06-30T00:30:02.260Z,80.20
2017-06-30T00:32:29.788Z,80.20
2017-06-30T00:37:31.154Z,80.00
2017-06-30T00:39:58.702Z,80.10
2017-06-30T00:42:26.202Z,79.90
2017-06-30T00:44:53.732Z,79.90
2017-06-30T00:47:21.280Z,79.60
2017-06-30T00:49:48.812Z,79.60
2017-06-30T00:52:17.066Z,79.30
2017-06-30T00:54:44.690Z,79.20
2017-06-30T00:57:12.172Z,79.30
2017-06-30T00:59:39.667Z,79.40
2017-06-30T01:02:08.058Z,79.10
2017-06-30T01:04:35.556Z,78.90
2017-06-30T01:07:03.035Z,79.20
2017-06-30T01:09:30.547Z,79.00
2017-06-30T01:11:58.023Z,78.80
2017-06-30T01:14:25.516Z,78.90
2017-06-30T01:16:53.020Z,78.90
2017-06-30T01:19:20.533Z,78.90
2017-06-30T01:21:48.023Z,78.60
2017-06-30T01:24:15.531Z,78.40
2017-06-30T01:26:43.024Z,78.60
2017-06-30T01:29:11.270Z,78.60
2017-06-30T01:31:38.896Z,78.40
2017-06-30T01:34:06.379Z,78.50
2017-06-30T01:36:33.874Z,78.60
2017-06-30T01:39:02.157Z,78.80
2017-06-30T01:41:30.412Z,78.90
2017-06-30T01:43:57.888Z,78.90
2017-06-30T01:46:26.155Z,79.40
2017-06-30T01:48:53.638Z,79.20
2017-06-30T01:51:21.121Z,79.20
2017-06-30T01:53:48.631Z,79.40
2017-06-30T01:56:16.116Z,79.50
2017-06-30T01:58:44.537Z,79.60
2017-06-30T02:01:12.067Z,79.50
2017-06-30T02:03:39.621Z,79.40
2017-06-30T02:06:07.148Z,79.60
2017-06-30T02:08:34.750Z,79.70
2017-06-30T02:11:02.228Z,80.00
2017-06-30T02:13:29.717Z,80.00
2017-06-30T02:15:57.303Z,79.80
2017-06-30T02:18:25.579Z,79.60
2017-06-30T02:20:53.828Z,79.60
2017-06-30T02:23:21.756Z,79.50
2017-06-30T02:25:49.314Z,79.60
2017-06-30T02:28:16.810Z,79.60
2017-06-30T02:30:44.319Z,79.40
2017-06-30T02:33:11.788Z,78.90
2017-06-30T02:35:39.273Z,78.80
2017-06-30T02:38:06.795Z,78.60
2017-06-30T02:40:34.283Z,78.60
2017-06-30T02:43:01.773Z,78.30
2017-06-30T02:45:29.358Z,78.30
2017-06-30T02:47:56.856Z,78.10
2017-06-30T02:50:24.339Z,78.20
2017-06-30T02:52:52.068Z,77.90
2017-06-30T02:55:19.576Z,77.70
2017-06-30T02:57:47.848Z,77.80
2017-06-30T03:00:15.374Z,77.70
2017-06-30T03:02:42.877Z,77.70
2017-06-30T03:05:10.468Z,77.90
2017-06-30T03:07:38.640Z,77.70
2017-06-30T03:10:06.138Z,77.80
2017-06-30T03:12:33.611Z,77.40
2017-06-30T03:15:01.132Z,77.60
2017-06-30T03:17:28.620Z,77.50
2017-06-30T03:19:56.105Z,77.60
2017-06-30T03:22:24.389Z,78.30
2017-06-30T03:24:51.913Z,77.40
2017-06-30T03:27:19.407Z,77.50
2017-06-30T03:29:47.688Z,77.90
2017-06-30T03:32:15.940Z,77.10
2017-06-30T03:34:43.440Z,77.00
2017-06-30T03:37:10.958Z,76.90
2017-06-30T03:39:38.451Z,76.90
2017-06-30T03:42:05.961Z,76.70
2017-06-30T03:44:33.465Z,76.90
2017-06-30T03:47:00.956Z,76.40
2017-06-30T03:49:28.449Z,76.40
2017-06-30T03:51:55.963Z,76.20
2017-06-30T03:54:23.465Z,76.10
2017-06-30T03:56:50.959Z,75.80
2017-06-30T03:59:18.464Z,75.20
2017-06-30T04:01:45.964Z,75.40
2017-06-30T04:04:14.239Z,75.30
2017-06-30T04:06:41.775Z,75.20
2017-06-30T04:09:10.072Z,74.60
2017-06-30T04:11:37.610Z,74.40
2017-06-30T04:14:05.132Z,74.70
2017-06-30T04:16:32.615Z,74.70
2017-06-30T04:19:00.105Z,74.60
2017-06-30T04:21:27.622Z,74.60
2017-06-30T04:23:55.124Z,74.20
2017-06-30T04:26:22.609Z,74.40
2017-06-30T04:28:50.122Z,74.40
2017-06-30T04:31:17.612Z,74.00
2017-06-30T04:33:45.846Z,74.10
2017-06-30T04:36:13.382Z,74.00
2017-06-30T04:38:40.912Z,73.70
2017-06-30T04:41:08.479Z,73.60
2017-06-30T04:43:35.984Z,74.40
2017-06-30T04:46:03.485Z,74.60
2017-06-30T04:48:31.741Z,74.00
2017-06-30T04:50:59.232Z,73.80
2017-06-30T04:53:26.734Z,74.10
2017-06-30T04:55:54.222Z,73.80
2017-06-30T04:58:21.732Z,73.80
2017-06-30T05:00:49.213Z,74.10
2017-06-30T05:03:16.708Z,73.60
2017-06-30T05:05:44.996Z,73.80
2017-06-30T05:08:12.495Z,73.70
2017-06-30T05:10:39.993Z,73.40
2017-06-30T05:13:07.507Z,73.30
2017-06-30T05:15:35.009Z,73.00
2017-06-30T05:18:02.512Z,72.90
2017-06-30T05:20:30.025Z,72.70
2017-06-30T05:22:58.318Z,72.80
2017-06-30T05:25:25.905Z,72.60
2017-06-30T05:27:53.415Z,72.70
2017-06-30T05:30:20.912Z,72.70
2017-06-30T05:32:48.438Z,72.30
2017-06-30T05:35:15.930Z,72.50
2017-06-30T05:37:43.452Z,72.60
2017-06-30T05:40:10.983Z,73.10
2017-06-30T05:42:39.327Z,73.10
2017-06-30T05:45:06.816Z,72.90
2017-06-30T05:47:34.340Z,72.50
2017-06-30T05:50:01.866Z,72.30
2017-06-30T05:52:29.478Z,72.20
2017-06-30T05:54:56.987Z,71.90
2017-06-30T05:57:24.578Z,71.90
2017-06-30T05:59:52.134Z,71.70
2017-06-30T06:02:19.678Z,71.90
2017-06-30T06:04:47.970Z,71.50
2017-06-30T06:07:15.471Z,71.50
2017-06-30T06:09:42.961Z,71.30
2017-06-30T06:12:10.475Z,70.70
2017-06-30T06:14:37.977Z,70.20
2017-06-30T06:17:05.466Z,70.60
2017-06-30T06:19:33.019Z,70.20
2017-06-30T06:22:00.502Z,69.70
2017-06-30T06:24:28.014Z,69.90
2017-06-30T06:26:55.518Z,69.20
2017-06-30T06:29:23.048Z,69.40
2017-06-30T06:31:51.339Z,68.80
2017-06-30T06:34:18.937Z,68.70
2017-06-30T06:36:46.476Z,67.70
2017-06-30T06:39:13.971Z,68.70
2017-06-30T06:41:41.498Z,69.10
2017-06-30T06:44:09.015Z,69.20
2017-06-30T06:46:37.269Z,69.50
2017-06-30T06:49:04.818Z,68.70
2017-06-30T06:51:32.312Z,68.20
2017-06-30T06:54:00.582Z,65.80
2017-06-30T06:56:28.928Z,66.00
2017-06-30T06:58:56.453Z,66.00
2017-06-30T07:01:28.900Z,66.00
2017-06-30T07:03:59.308Z,67.60
2017-06-30T07:06:26.825Z,67.30
2017-06-30T07:08:54.320Z,67.90
2017-06-30T07:11:21.943Z,68.60
2017-06-30T07:13:49.500Z,68.20
2017-06-30T07:16:17.020Z,67.70
2017-06-30T07:18:45.302Z,68.00
2017-06-30T07:21:13.574Z,68.20
2017-06-30T07:23:41.829Z,67.90
2017-06-30T07:26:09.436Z,67.90
2017-06-30T07:28:36.944Z,67.70
2017-06-30T07:31:04.410Z,67.30
2017-06-30T07:33:31.922Z,67.90
2017-06-30T07:35:59.421Z,68.70
2017-06-30T07:38:26.898Z,68.40
2017-06-30T07:40:54.623Z,68.10
2017-06-30T07:43:22.125Z,69.00
2017-06-30T07:45:50.473Z,68.40
2017-06-30T07:48:17.991Z,68.80
2017-06-30T07:50:45.521Z,67.80
2017-06-30T07:53:13.019Z,68.40
2017-06-30T07:55:40.582Z,68.50
2017-06-30T07:58:08.083Z,67.70
2017-06-30T08:00:35.565Z,66.50
2017-06-30T08:03:03.864Z,66.60
2017-06-30T08:05:31.358Z,66.50
2017-06-30T08:07:58.831Z,66.10
2017-06-30T08:10:26.370Z,65.30
2017-06-30T08:12:53.857Z,64.50
2017-06-30T08:15:21.350Z,64.70
2017-06-30T08:17:48.922Z,64.60
2017-06-30T08:20:16.420Z,64.90
2017-06-30T08:22:43.916Z,63.40
2017-06-30T08:25:12.221Z,64.00
2017-06-30T08:27:39.789Z,63.80
2017-06-30T08:30:07.286Z,64.70
2017-06-30T08:32:34.835Z,64.40
2017-06-30T08:35:02.322Z,64.50
2017-06-30T08:37:30.568Z,64.50
2017-06-30T08:39:58.137Z,64.30
2017-06-30T08:42:26.541Z,63.40
2017-06-30T08:44:55.532Z,64.30
2017-06-30T08:47:23.838Z,62.70
2017-06-30T08:49:51.342Z,63.00
2017-06-30T08:52:19.456Z,62.20
2017-06-30T08:54:47.001Z,61.40
2017-06-30T08:57:15.321Z,62.00
2017-06-30T08:59:42.836Z,61.40
2017-06-30T09:02:11.136Z,61.50
2017-06-30T09:04:38.654Z,61.30
2017-06-30T09:07:06.130Z,60.20
2017-06-30T09:09:34.442Z,60.70
2017-06-30T09:12:02.582Z,60.00
2017-06-30T09:14:30.083Z,59.50
2017-06-30T09:16:57.603Z,59.50
2017-06-30T09:19:25.861Z,59.90
2017-06-30T09:21:53.348Z,59.90
2017-06-30T09:24:20.847Z,59.10
2017-06-30T09:26:48.408Z,59.40
2017-06-30T09:29:15.932Z,59.30
2017-06-30T09:31:44.174Z,59.10
2017-06-30T09:34:11.663Z,58.90
2017-06-30T09:36:39.937Z,58.20
2017-06-30T09:39:09.245Z,57.30
2017-06-30T09:41:36.740Z,57.30
2017-06-30T09:44:04.262Z,56.60
2017-06-30T09:46:31.760Z,55.90
2017-06-30T09:49:00.173Z,55.50
2017-06-30T09:51:27.658Z,55.70
2017-06-30T09:53:55.162Z,55.60
2017-06-30T09:56:22.699Z,55.80
2017-06-30T09:58:50.196Z,55.90
2017-06-30T10:01:17.691Z,55.30
2017-06-30T10:03:45.218Z,55.40
2017-06-30T10:06:12.715Z,53.80
2017-06-30T10:08:40.234Z,53.80
2017-06-30T10:11:07.787Z,55.10
2017-06-30T10:13:35.295Z,55.80
2017-06-30T10:16:02.796Z,55.10
2017-06-30T10:18:30.306Z,55.80
2017-06-30T10:20:57.847Z,55.80
2017-06-30T10:23:26.161Z,55.70
2017-06-30T10:25:53.690Z,55.70
2017-06-30T10:28:21.963Z,53.50
2017-06-30T10:30:50.400Z,53.90
2017-06-30T10:33:17.916Z,53.90
2017-06-30T10:35:46.186Z,53.00
2017-06-30T10:38:14.574Z,53.20
2017-06-30T10:40:42.080Z,53.10
2017-06-30T10:43:09.557Z,52.40
2017-06-30T10:45:37.184Z,50.70
2017-06-30T10:48:04.680Z,51.70
2017-06-30T10:50:32.180Z,50.70
2017-06-30T10:52:59.717Z,50.00
2017-06-30T10:55:28.019Z,50.00
2017-06-30T10:57:55.540Z,50.00
2017-06-30T11:00:23.069Z,51.00
2017-06-30T11:02:50.566Z,50.10
2017-06-30T11:05:18.838Z,50.80
2017-06-30T11:07:46.399Z,50.70
2017-06-30T11:10:13.916Z,50.20
2017-06-30T11:12:41.575Z,49.50
2017-06-30T11:15:09.094Z,48.60
2017-06-30T11:17:37.356Z,47.90
2017-06-30T11:20:05.654Z,48.70
2017-06-30T11:22:33.938Z,48.80
2017-06-30T11:25:01.444Z,48.80
2017-06-30T11:27:28.955Z,48.00
2017-06-30T11:29:56.480Z,47.40
2017-06-30T11:32:24.024Z,48.00
2017-06-30T11:34:51.538Z,47.60
2017-06-30T11:37:19.198Z,47.10
2017-06-30T11:39:46.754Z,47.20
2017-06-30T11:42:14.251Z,47.50
2017-06-30T11:44:41.761Z,47.20
2017-06-30T11:47:10.147Z,48.80
2017-06-30T11:49:37.674Z,48.80
2017-06-30T11:52:05.958Z,47.20
2017-06-30T11:54:34.302Z,45.10
2017-06-30T11:57:01.847Z,44.90
2017-06-30T11:59:29.360Z,45.20
2017-06-30T12:01:56.947Z,42.90
2017-06-30T12:04:24.437Z,43.50
2017-06-30T12:06:51.956Z,41.80
2017-06-30T12:09:19.503Z,42.90
2017-06-30T12:11:47.751Z,44.40
2017-06-30T12:14:15.808Z,44.30
2017-06-30T12:16:43.329Z,42.90
2017-06-30T12:19:10.840Z,43.10
2017-06-30T12:21:38.349Z,40.60
2017-06-30T12:24:06.290Z,37.70
2017-06-30T12:26:34.552Z,35.30
2017-06-30T12:29:02.046Z,35.10
2017-06-30T12:31:29.598Z,37.60
2017-06-30T12:33:57.997Z,38.60
2017-06-30T12:36:26.530Z,38.50
2017-06-30T12:38:54.054Z,40.20
2017-06-30T12:41:21.562Z,42.80
2017-06-30T12:43:49.109Z,43.30
2017-06-30T12:46:16.736Z,44.10
2017-06-30T12:48:44.272Z,47.10
2017-06-30T12:51:11.782Z,54.00
2017-06-30T12:53:39.254Z,58.30
2017-06-30T12:56:06.765Z,55.90
2017-06-30T12:58:34.322Z,52.70
2017-06-30T13:01:01.815Z,50.80
2017-06-30T13:03:29.323Z,51.10
2017-06-30T13:05:56.805Z,50.90
2017-06-30T13:08:24.367Z,50.10
2017-06-30T13:10:51.884Z,50.00
2017-06-30T13:13:20.170Z,46.40
2017-06-30T13:15:48.576Z,42.90
2017-06-30T13:18:16.107Z,42.90
2017-06-30T13:20:44.780Z,43.60
2017-06-30T13:23:13.088Z,43.90
2017-06-30T13:25:40.645Z,43.80
2017-06-30T13:28:08.145Z,40.10
2017-06-30T13:30:35.669Z,40.30
2017-06-30T13:33:03.244Z,41.70
2017-06-30T13:35:30.734Z,43.00
2017-06-30T13:37:58.587Z,42.90
2017-06-30T13:40:26.073Z,43.30
2017-06-30T13:42:53.583Z,43.00
2017-06-30T13:45:21.130Z,43.90
2017-06-30T13:47:48.620Z,47.70
2017-06-30T13:50:16.098Z,49.40
2017-06-30T13:52:43.620Z,51.10
2017-06-30T13:55:11.282Z,52.60
2017-06-30T13:57:38.795Z,53.90
2017-06-30T14:00:06.341Z,55.80
2017-06-30T14:02:33.835Z,55.90
2017-06-30T14:05:01.349Z,57.60
2017-06-30T14:07:28.854Z,59.50
2017-06-30T14:09:56.355Z,59.10
2017-06-30T14:12:23.869Z,57.60
2017-06-30T14:14:51.362Z,56.10
2017-06-30T14:17:18.885Z,51.80
2017-06-30T14:19:46.407Z,47.90
2017-06-30T14:22:13.910Z,44.30
2017-06-30T14:24:41.419Z,42.30
2017-06-30T14:27:08.937Z,37.60
2017-06-30T14:29:36.459Z,35.20
2017-06-30T14:32:04.008Z,32.90
2017-06-30T14:34:31.525Z,37.40
2017-06-30T14:36:59.037Z,37.90
2017-06-30T14:39:27.318Z,37.20
2017-06-30T14:41:55.572Z,35.50
2017-06-30T14:44:23.113Z,35.50
2017-06-30T14:46:50.639Z,38.40
2017-06-30T14:49:18.178Z,40.00
2017-06-30T14:51:46.467Z,41.20
2017-06-30T14:54:13.997Z,41.20
2017-06-30T14:56:41.503Z,40.10
2017-06-30T14:59:09.004Z,39.90
2017-06-30T15:01:36.504Z,38.10
2017-06-30T15:04:03.990Z,38.80
2017-06-30T15:06:31.525Z,39.50
2017-06-30T15:08:59.005Z,38.50
2017-06-30T15:11:26.508Z,33.00
2017-06-30T15:13:54.128Z,29.60
2017-06-30T15:16:21.628Z,30.20
2017-06-30T15:18:49.127Z,32.20
2017-06-30T15:21:16.630Z,31.70
2017-06-30T15:23:44.144Z,31.90
2017-06-30T15:26:11.776Z,31.30
2017-06-30T15:28:40.058Z,32.60
2017-06-30T15:31:07.559Z,31.90
2017-06-30T15:33:35.075Z,35.80
2017-06-30T15:36:03.377Z,37.20
2017-06-30T15:38:30.880Z,37.10
2017-06-30T15:40:58.380Z,39.30
2017-06-30T15:43:25.904Z,46.50
2017-06-30T15:45:53.416Z,50.80
2017-06-30T15:48:20.913Z,43.70
2017-06-30T15:50:48.440Z,35.40
2017-06-30T15:53:15.985Z,34.70
2017-06-30T15:55:43.502Z,33.50
2017-06-30T15:58:11.042Z,33.40
2017-06-30T16:00:38.527Z,31.00
2017-06-30T16:03:06.016Z,30.40
2017-06-30T16:05:33.526Z,32.60
2017-06-30T16:08:01.139Z,32.60
2017-06-30T16:10:28.643Z,31.00
2017-06-30T16:12:56.145Z,32.50
2017-06-30T16:15:24.408Z,33.40
2017-06-30T16:17:51.925Z,33.40
2017-06-30T16:20:19.445Z,33.40
2017-06-30T16:22:46.976Z,31.50
2017-06-30T16:25:14.520Z,30.40
2017-06-30T16:27:42.048Z,30.00
2017-06-30T16:30:09.561Z,30.20
2017-06-30T16:32:37.877Z,32.90
2017-06-30T16:35:05.403Z,32.90
2017-06-30T16:37:33.694Z,34.30
2017-06-30T16:40:01.270Z,34.30
2017-06-30T16:42:28.764Z,31.00
2017-06-30T16:44:56.373Z,30.40
2017-06-30T16:47:24.652Z,28.20
2017-06-30T16:49:52.139Z,28.20
2017-06-30T16:52:19.643Z,27.60
2017-06-30T16:54:47.187Z,26.40
2017-06-30T16:57:14.717Z,25.70
2017-06-30T16:59:42.247Z,26.00
2017-06-30T17:02:10.962Z,26.10
2017-06-30T17:04:38.462Z,26.00
2017-06-30T17:07:06.006Z,25.00
2017-06-30T17:09:33.506Z,25.80
2017-06-30T17:12:01.791Z,24.60
2017-06-30T17:14:29.283Z,24.60
2017-06-30T17:16:56.774Z,25.20
2017-06-30T17:19:24.291Z,26.50
2017-06-30T17:21:51.814Z,26.00
2017-06-30T17:24:20.124Z,29.90
2017-06-30T17:26:47.626Z,29.80
2017-06-30T17:29:15.123Z,29.80
2017-06-30T17:31:42.678Z,30.70
2017-06-30T17:34:10.963Z,31.30
2017-06-30T17:36:38.496Z,31.30
2017-06-30T17:39:06.872Z,32.00
2017-06-30T17:41:34.362Z,31.90
2017-06-30T17:44:01.932Z,33.40
2017-06-30T17:46:29.430Z,34.80
2017-06-30T17:48:56.946Z,36.90
2017-06-30T17:51:24.451Z,39.00
2017-06-30T17:53:51.987Z,39.60
2017-06-30T17:56:19.637Z,39.80
2017-06-30T17:58:47.148Z,41.00
2017-06-30T18:01:14.683Z,41.60
2017-06-30T18:03:42.260Z,42.20
2017-06-30T18:06:09.748Z,42.90
2017-06-30T18:08:38.102Z,44.80
2017-06-30T18:11:05.729Z,44.70
2017-06-30T18:13:33.241Z,45.30
2017-06-30T18:16:01.528Z,46.20
2017-06-30T18:18:29.787Z,47.10
2017-06-30T18:20:58.063Z,47.60
2017-06-30T18:23:25.789Z,47.60
2017-06-30T18:25:53.295Z,47.80
2017-06-30T18:28:21.580Z,49.20
2017-06-30T18:30:49.867Z,49.80
2017-06-30T18:33:17.390Z,49.80
2017-06-30T18:35:45.071Z,50.10
2017-06-30T18:38:12.577Z,50.40
2017-06-30T18:40:40.259Z,50.90
2017-06-30T18:43:07.748Z,51.60
2017-06-30T18:45:36.009Z,52.30
2017-06-30T18:48:03.523Z,52.30
2017-06-30T18:50:31.079Z,53.30
2017-06-30T18:52:58.601Z,54.10
2017-06-30T18:55:26.883Z,54.80
2017-06-30T18:57:55.195Z,55.30
2017-06-30T19:00:22.681Z,55.30
2017-06-30T19:02:50.194Z,55.50
2017-06-30T19:05:17.696Z,55.80
2017-06-30T19:07:45.207Z,55.80
2017-06-30T19:10:12.711Z,55.90
2017-06-30T19:12:40.193Z,54.60
2017-06-30T19:15:08.523Z,54.10
2017-06-30T19:17:36.009Z,54.00
2017-06-30T19:20:03.518Z,53.70
2017-06-30T19:22:31.800Z,53.80
2017-06-30T19:24:59.319Z,53.70
2017-06-30T19:27:26.817Z,53.70
2017-06-30T19:29:54.381Z,53.40
2017-06-30T19:32:29.286Z,53.30
2017-06-30T19:35:01.875Z,53.70
2017-06-30T19:37:29.448Z,53.60
2017-06-30T19:39:57.003Z,54.10
2017-06-30T19:42:24.470Z,54.30
2017-06-30T19:44:52.002Z,54.30
2017-06-30T19:47:20.255Z,54.70
2017-06-30T19:49:47.718Z,54.70
2017-06-30T19:52:15.691Z,54.30
2017-06-30T19:54:43.179Z,54.70
2017-06-30T19:57:11.432Z,56.40
2017-06-30T19:59:39.126Z,55.80
2017-06-30T20:02:06.610Z,55.60
2017-06-30T20:04:34.171Z,55.90
2017-06-30T20:07:01.804Z,56.20
2017-06-30T20:09:29.320Z,56.40
2017-06-30T20:11:56.831Z,56.80
2017-06-30T20:14:24.354Z,57.20
2017-06-30T20:16:52.627Z,58.10
2017-06-30T20:19:20.113Z,57.60
2017-06-30T20:21:47.623Z,57.50
2017-06-30T20:24:15.115Z,57.50
2017-06-30T20:26:43.387Z,57.90
2017-06-30T20:29:10.928Z,57.90
2017-06-30T20:31:38.428Z,58.00
2017-06-30T20:34:05.915Z,58.20
2017-06-30T20:36:33.452Z,58.40
2017-06-30T20:39:00.944Z,58.80
2017-06-30T20:41:28.449Z,59.10
2017-06-30T20:43:56.758Z,60.40
2017-06-30T20:46:24.252Z,60.30
2017-06-30T20:48:51.770Z,60.70
2017-06-30T20:51:19.531Z,61.00
2017-06-30T20:53:47.036Z,60.80
2017-06-30T20:56:14.550Z,61.00
2017-06-30T20:58:42.083Z,60.90
2017-06-30T21:01:10.360Z,60.80
2017-06-30T21:03:38.655Z,60.30
2017-06-30T21:06:06.196Z,60.30
2017-06-30T21:08:34.463Z,60.20
2017-06-30T21:11:02.741Z,61.10
2017-06-30T21:13:30.281Z,60.20
2017-06-30T21:15:57.806Z,60.30
2017-06-30T21:18:25.305Z,60.50
2017-06-30T21:20:52.811Z,60.40
2017-06-30T21:23:20.311Z,60.40
2017-06-30T21:25:47.942Z,60.60
2017-06-30T21:28:15.459Z,61.20
2017-06-30T21:30:43.743Z,61.90
2017-06-30T21:33:11.326Z,61.90
2017-06-30T21:35:38.910Z,62.20
2017-06-30T21:38:06.410Z,62.40
2017-06-30T21:40:34.015Z,62.60
2017-06-30T21:43:01.583Z,62.80
2017-06-30T21:45:29.129Z,62.80
2017-06-30T21:47:56.655Z,63.20
2017-06-30T21:50:24.151Z,63.10
2017-06-30T21:52:51.707Z,63.00
2017-06-30T21:55:19.238Z,63.10
2017-06-30T21:57:48.490Z,63.10
2017-06-30T22:00:16.899Z,62.90
2017-06-30T22:02:44.440Z,62.90
2017-06-30T22:05:11.943Z,63.20
2017-06-30T22:07:40.219Z,63.30
2017-06-30T22:10:08.524Z,63.20
2017-06-30T22:12:36.015Z,63.20
2017-06-30T22:15:03.516Z,63.20
2017-06-30T22:17:31.927Z,63.60
2017-06-30T22:19:59.484Z,63.60
2017-06-30T22:22:27.149Z,63.80
2017-06-30T22:24:54.642Z,64.30
2017-06-30T22:27:22.134Z,65.00
2017-06-30T22:29:50.435Z,65.10
2017-06-30T22:32:17.950Z,65.10
2017-06-30T22:34:45.661Z,65.20
2017-06-30T22:37:13.204Z,65.30
2017-06-30T22:39:40.733Z,65.80
2017-06-30T22:42:08.236Z,65.50
2017-06-30T22:44:35.744Z,65.70
2017-06-30T22:47:03.264Z,65.90
2017-06-30T22:49:30.778Z,66.10
2017-06-30T22:51:59.444Z,66.50
2017-06-30T22:54:26.979Z,66.40
2017-06-30T22:56:55.346Z,66.10
2017-06-30T22:59:22.837Z,66.10
2017-06-30T23:01:50.355Z,66.10
2017-06-30T23:04:17.896Z,66.00
2017-06-30T23:06:45.427Z,66.20
2017-06-30T23:09:13.126Z,66.10
2017-06-30T23:11:40.612Z,66.50
2017-06-30T23:14:08.114Z,66.60
2017-06-30T23:16:35.648Z,66.70
2017-06-30T23:19:03.139Z,66.80
2017-06-30T23:21:31.402Z,67.20
2017-06-30T23:23:58.997Z,67.20
2017-06-30T23:26:26.485Z,67.40
2017-06-30T23:28:53.975Z,67.60
2017-06-30T23:31:21.516Z,67.80
2017-06-30T23:33:48.994Z,67.90
2017-06-30T23:36:16.475Z,68.00
2017-06-30T23:38:44.761Z,68.10
2017-06-30T23:41:12.262Z,68.10
2017-06-30T23:43:39.750Z,68.20
2017-06-30T23:46:07.443Z,68.20
2017-06-30T23:48:35.609Z,68.30
2017-06-30T23:51:03.895Z,68.60
2017-06-30T23:53:31.394Z,68.50
2017-06-30T23:55:58.871Z,68.50
2017-06-30T23:58:26.359Z,68.50
